Airfield :
LOGIN :

Register | Disclaimer

   EN    FR    IT 

 










Legend :    VFR   Marginal VFR   IFR   Intensive IFR   Very Intensive IFR
Visi :
Ceiling :
>= 8 km
>= 3000ft
5 to 8 km
1000 to 3000 ft
1500m to 5 km
500 to 1000 ft
800 to 1500m
200 to 500 ft
< 800m
< 200 ft
Symbols :   Thunderstorms  Fog  Heavy snow  Heavy precipitations  Wind > 20 kt
SIGMETs :     Misc.  Thunderstorms  Icing  Turbulence  Mountain Waves  Volcanic Ashes






- Airport Elevation : 204 ft
- IATA code : AGF


LFBA - Agen

CURRENT METAR :
  • 230700Z AUTO 05010G22KT 010V080 9999 BKN010 OVC130 14/13 Q1006 TEMPO 09020G35KT 4000 RA BKN006 FEW020TCU

EXPIRED METARs :
  • 230630Z AUTO 10011KT 9999 FEW011 OVC140 13/13 Q1004 TEMPO 09020G35KT 4000 RA BKN006 FEW020TCU
  • 230600Z AUTO 07006KT 040V100 9999 FEW005 OVC130 13/12 Q1004 TEMPO 09020G35KT 4000 RA BKN006 FEW020TCU
  • 230530Z AUTO 06005KT 9999 -RA SCT004/// SCT046/// OVC120/// ///TCU 12/11 Q1005
  • 230500Z AUTO 09005KT 9999 -RA FEW002/// BKN025/// BKN086/// ///TCU 12/11 Q1007
  • 230430Z AUTO 13003KT 9999 -RA SCT006/// BKN012/// BKN022/// ///TCU 12/12 Q1008

TAF TAF LFBA
Valid from the 23 at 06:00 until the 23 at 15:00 UTC


230500Z 2306/2315 03005KT 9999 -RA BKN012 OVC020
BECMG 2306/2307 09015G25KT
TEMPO 2307/2309 09020G35KT 4000 RA BKN006 FEW020TCU
BECMG 2309/2311 12010KT 9999 NSW BKN020



MET'MAP, your aeronautical weather chart ! - Copyright ORBIFLY December 2007 - Disclaimer

ORBIFLY MET'MAP TEAM :

Programming & Development : Alexandra Zaïnal
Concept & Development : Baudouin d'Aumeries
Co-Development & Prog : Marc-Olivier Méhu
Technical & hardware support : Manuel Goepfert

Contact : metmap@orbifly.com




SOURCES & CREDITS :

   NOAA